createdAt,value
2023-05-09T06:45:40.155Z,11.68
2023-05-09T07:01:22.734Z,12.05
2023-05-09T07:17:05.571Z,12.51
2023-05-09T07:32:47.866Z,13.02
2023-05-09T08:19:55.415Z,14.59
2023-05-09T08:35:37.811Z,16.42
2023-05-09T08:51:20.740Z,17.78
2023-05-09T09:07:03.029Z,18.59
2023-05-09T09:22:46.025Z,19.31
2023-05-09T09:38:28.364Z,20.26
2023-05-09T09:54:11.295Z,20.92
2023-05-09T10:10:01.010Z,21.82
2023-05-09T10:57:08.086Z,23.23
2023-05-09T11:28:26.163Z,25.32
2023-05-09T12:15:39.945Z,26.54
2023-05-09T12:31:15.541Z,27.37
2023-05-09T13:18:22.082Z,29.34
2023-05-09T13:49:46.258Z,29.71
2023-05-09T13:50:33.420Z,29.87
2023-05-09T14:06:16.025Z,29.62
2023-05-09T14:22:12.775Z,30.1
2023-05-09T14:37:47.805Z,30.02
2023-05-09T14:53:30.753Z,29.52
2023-05-09T15:09:12.766Z,29.05
2023-05-09T15:25:02.019Z,29.27
2023-05-09T15:40:30.533Z,29.02
2023-05-09T15:56:26.819Z,27.46
2023-05-09T16:11:55.254Z,27.44
2023-05-09T16:27:37.376Z,27.21
2023-05-09T16:43:19.332Z,26.35
2023-05-09T17:14:44.305Z,24.29
2023-05-09T17:46:15.423Z,20.69
2023-05-09T18:01:51.187Z,19.29
2023-05-09T18:33:16.280Z,17.35
2023-05-09T19:04:40.893Z,16.15
2023-05-09T19:20:30.770Z,15.73
2023-05-09T20:07:45.614Z,14.74
2023-05-09T20:54:46.418Z,13.9
2023-05-09T21:26:18.278Z,13.57
2023-05-09T21:41:47.257Z,13.35
2023-05-09T21:57:29.598Z,13.14
2023-05-09T22:13:11.774Z,12.96
2023-05-09T22:28:54.007Z,12.83
2023-05-09T22:44:36.482Z,12.76
2023-05-09T23:00:19.023Z,12.52
2023-05-09T23:16:01.298Z,12.25
2023-05-09T23:31:43.534Z,11.95
2023-05-09T23:47:26.551Z,11.6
